METAR Data
IDs: Format: Raw Decoded Include TAF

Data at: 1455 UTC 04 Aug 2021

KBWI 041354Z 01005KT 10SM SCT210 OVC240 22/15 A3011 RMK AO2 SLP196 T02220150
KBWI 041254Z VRB04KT 10SM BKN210 OVC250 21/17 A3011 RMK AO2 SLP195 T02110167
KBWI 041154Z 02006KT 10SM BKN210 OVC250 21/17 A3009 RMK AO2 SLP189 T02060167 10206 20178 53005
KBWI 041054Z 05005KT 10SM OVC250 20/16 A3008 RMK AO2 SLP185 T02000156
KBWI 040954Z 00000KT 10SM OVC250 19/16 A3007 RMK AO2 SLP181 T01940161
KBWI 040854Z 30003KT 10SM FEW014 OVC250 18/16 A3008 RMK AO2 SLP184 T01780161 55004
KBWI 040754Z 00000KT 10SM OVC250 18/16 A3008 RMK AO2 SLP184 T01830161
KBWI 040654Z 00000KT 10SM BKN250 19/16 A3009 RMK AO2 SLP187 T01940161
KBWI 040554Z 00000KT 10SM SCT250 19/16 A3009 RMK AO2 SLP188 T01890161 10244 20183 56001
KBWI 040454Z 00000KT 10SM SCT250 19/16 A3010 RMK AO2 SLP189 T01890161 402780167
KBWI 040354Z 00000KT 10SM SCT250 22/16 A3008 RMK AO2 SLP185 T02170161
KBWI 040254Z 00000KT 10SM SCT250 22/16 A3010 RMK AO2 SLP189 T02220161 51009
KBWI 040154Z 14004KT 10SM FEW180 OVC250 23/16 A3009 RMK AO2 SLP188 T02280161
KBWI 040054Z 19003KT 10SM SCT180 BKN250 23/16 A3008 RMK AO2 SLP185 T02330161
KBWI 032354Z 14004KT 10SM FEW040 SCT180 BKN250 24/15 A3007 RMK AO2 SLP180 T02440150 10278 20244 50002
KBWI 032254Z 10007KT 10SM FEW041 SCT180 BKN250 25/14 A3007 RMK AO2 SLP182 T02500144
KBWI 032154Z 10006KT 10SM SCT041 SCT180 BKN250 26/14 A3007 RMK AO2 SLP182 T02610144
KBWI 032054Z 09005KT 10SM SCT040 SCT180 BKN250 27/14 A3006 RMK AO2 SLP179 T02670139 56006
KBWI 031954Z 11006KT 10SM FEW040 SCT180 BKN250 27/14 A3007 RMK AO2 SLP180 T02670139
KBWI 031854Z 10007KT 10SM FEW040 SCT180 BKN250 27/14 A3007 RMK AO2 SLP182 T02720139
KBWI 031754Z COR 05007KT 10SM FEW040 FEW180 BKN250 27/13 A3008 RMK AO2 SLP185 T02670133 10267 20200 58009
KBWI 031654Z 05006KT 10SM FEW040 FEW180 OVC250 26/14 A3009 RMK AO2 SLP189 T02610144
KBWI 031554Z VRB03KT 10SM FEW040 FEW180 OVC250 25/16 A3011 RMK AO2 SLP196 T02500156
KBWI 031454Z VRB05KT 10SM FEW140 OVC250 24/16 A3011 RMK AO2 SLP195 T02390161 50003
KBWI 031354Z 05005KT 10SM FEW140 OVC250 23/14 A3012 RMK AO2 SLP198 T02280139
KBWI 031254Z 02004KT 10SM OVC250 22/14 A3011 RMK AO2 SLP194 T02220144
KBWI 031154Z 00000KT 10SM FEW140 OVC250 21/15 A3010 RMK AO2 SLP192 T02060150 10206 20167 50004
KBWI 031054Z VRB03KT 10SM FEW140 OVC250 18/15 A3011 RMK AO2 SLP193 T01830150
KBWI 030954Z 00000KT 10SM BKN250 18/15 A3010 RMK AO2 SLP192 T01780150
KBWI 030854Z 00000KT 10SM OVC250 17/15 A3009 RMK AO2 SLP188 T01720150 53000
KBWI 030754Z 00000KT 10SM BKN250 17/15 A3008 RMK AO2 SLP185 T01670150
KBWI 030654Z 00000KT 10SM BKN250 17/15 A3009 RMK AO2 SLP187 T01720150
KBWI 030554Z 27003KT 10SM BKN250 17/15 A3009 RMK AO2 SLP188 T01720150 10256 20167 58002
KBWI 030454Z 00000KT 10SM BKN250 18/15 A3010 RMK AO2 SLP190 T01780150 402890161
KBWI 030354Z 28003KT 10SM SCT250 18/15 A3010 RMK AO2 SLP191 T01780150